Time;durP1;ratioP1;P1;durP2;ratioP2;P2;SDS_P1;SDS_P2;PMS_P1;PMS_P2;Temp;Humidity;BMP_temperature;BMP_pressure;BME280_temperature;BME280_humidity;BME280_pressure;Samples;Min_cycle;Max_cycle;Signal;HPM_P1;HPM_P2
2023/03/27 00:01:23;;;;;;;4.60;1.10;;;6.80;1.00;;;;;;5062887;28;20396;-65
2023/03/27 00:03:50;;;;;;;4.00;1.00;;;6.80;1.00;;;;;;5068830;28;20418;-62
2023/03/27 00:06:17;;;;;;;4.80;1.20;;;7.90;1.00;;;;;;5041373;28;20480;-65
2023/03/27 00:08:49;;;;;;;4.32;1.20;;;6.70;1.00;;;;;;5053066;28;20470;-65
2023/03/27 00:11:15;;;;;;;4.03;1.10;;;6.80;1.00;;;;;;5053972;28;20403;-64
2023/03/27 00:13:43;;;;;;;4.20;1.10;;;6.80;1.00;;;;;;5055668;28;20443;-65
2023/03/27 00:16:10;;;;;;;4.35;1.10;;;6.90;1.00;;;;;;5055594;28;20484;-65
2023/03/27 00:18:36;;;;;;;5.25;1.20;;;6.80;1.00;;;;;;5052025;28;20396;-65
2023/03/27 00:21:03;;;;;;;4.80;1.50;;;8.40;1.00;;;;;;5050842;28;20400;-65
2023/03/27 00:23:30;;;;;;;4.03;1.05;;;6.90;1.00;;;;;;5057652;28;20964;-65
2023/03/27 00:25:56;;;;;;;9.20;1.60;;;7.00;1.00;;;;;;5049496;28;20404;-62
2023/03/27 00:28:25;;;;;;;4.43;1.30;;;7.10;1.00;;;;;;5060121;28;20412;-64
2023/03/27 00:30:53;;;;;;;4.28;1.10;;;7.20;1.00;;;;;;5031231;28;20786;-61
2023/03/27 00:33:19;;;;;;;3.97;0.90;;;8.50;1.00;;;;;;5048619;28;20404;-65
2023/03/27 00:35:46;;;;;;;4.57;1.20;;;7.10;1.00;;;;;;5049265;28;20739;-64
2023/03/27 00:38:12;;;;;;;4.15;0.90;;;7.10;1.00;;;;;;5048569;28;20408;-65
2023/03/27 00:40:38;;;;;;;3.80;0.80;;;7.10;1.00;;;;;;5048918;28;20414;-65
2023/03/27 00:43:24;;;;;;;4.00;0.80;;;7.10;1.00;;;;;;5048364;28;20448;-65
2023/03/27 00:46:01;;;;;;;4.38;0.77;;;7.10;1.00;;;;;;5049161;28;20385;-64
2023/03/27 00:48:29;;;;;;;3.80;0.80;;;7.10;1.00;;;;;;5049376;28;20396;-65
2023/03/27 00:50:56;;;;;;;3.90;0.70;;;7.10;1.00;;;;;;5048068;28;20382;-61
2023/03/27 00:53:25;;;;;;;4.45;0.90;;;7.20;1.00;;;;;;5048375;28;20386;-65
2023/03/27 00:55:55;;;;;;;4.13;0.70;;;7.20;1.00;;;;;;5048656;28;20461;-65
2023/03/27 00:58:29;;;;;;;4.20;0.70;;;7.20;1.00;;;;;;5048693;28;20515;-65
2023/03/27 01:00:56;;;;;;;4.40;0.80;;;7.20;1.00;;;;;;5051435;28;20515;-61
2023/03/27 01:03:26;;;;;;;3.70;0.60;;;7.30;1.00;;;;;;5052707;28;20401;-65
2023/03/27 01:05:53;;;;;;;4.30;0.90;;;7.10;1.00;;;;;;5052665;28;20396;-63
2023/03/27 01:08:19;;;;;;;3.70;0.60;;;6.90;1.00;;;;;;5052652;28;20443;-66
2023/03/27 01:11:00;;;;;;;3.70;0.50;;;6.90;1.00;;;;;;5052563;28;20385;-66
2023/03/27 01:14:03;;;;;;;4.00;0.70;;;6.80;1.00;;;;;;5052448;28;20412;-64
2023/03/27 01:16:54;;;;;;;4.30;0.67;;;6.70;1.00;;;;;;5052543;28;20469;-66
2023/03/27 01:19:59;;;;;;;3.83;0.50;;;6.70;1.00;;;;;;5052173;28;20381;-65
2023/03/27 01:23:03;;;;;;;3.70;0.50;;;6.80;1.00;;;;;;5061440;28;20431;-66
2023/03/27 01:25:47;;;;;;;3.60;0.50;;;6.70;99.90;;;;;;5044711;28;20766;-66
2023/03/27 01:28:19;;;;;;;4.00;0.70;;;6.80;1.00;;;;;;5067486;28;21046;-66
2023/03/27 01:31:03;;;;;;;4.20;0.60;;;6.60;1.00;;;;;;5056018;28;20405;-66
2023/03/27 01:34:00;;;;;;;4.00;0.60;;;6.80;1.00;;;;;;5062597;28;20405;-65
2023/03/27 01:37:08;;;;;;;4.50;0.80;;;6.80;1.00;;;;;;5053529;28;20397;-66
2023/03/27 01:39:49;;;;;;;3.70;0.52;;;6.80;1.00;;;;;;5046603;28;20409;-66
2023/03/27 01:42:20;;;;;;;4.65;0.75;;;6.90;1.00;;;;;;5044480;28;20423;-66
2023/03/27 01:44:55;;;;;;;4.45;0.80;;;6.60;1.00;;;;;;5065763;28;20407;-66
2023/03/27 01:47:21;;;;;;;4.40;0.80;;;6.60;1.00;;;;;;5058309;28;20403;-66
2023/03/27 01:49:54;;;;;;;5.83;1.00;;;6.60;1.00;;;;;;5062127;28;20401;-66
2023/03/27 01:52:26;;;;;;;4.77;1.10;;;6.60;1.00;;;;;;5051465;28;20389;-65
2023/03/27 01:54:56;;;;;;;4.20;0.70;;;7.50;1.00;;;;;;5059905;28;20492;-66
2023/03/27 01:57:27;;;;;;;4.70;0.80;;;6.40;1.00;;;;;;5052545;28;20884;-66
2023/03/27 02:03:06;;;;;;;4.80;1.05;;;6.40;99.90;;;;;;5068375;28;20404;-61
2023/03/27 02:05:38;;;;;;;4.43;0.85;;;6.40;99.90;;;;;;5035543;28;20828;-66
2023/03/27 02:08:13;;;;;;;4.25;0.88;;;6.20;99.90;;;;;;5058679;28;20392;-66
2023/03/27 02:10:42;;;;;;;5.97;1.55;;;6.20;99.90;;;;;;5054720;28;20468;-66
2023/03/27 02:13:20;;;;;;;5.50;1.50;;;6.60;99.90;;;;;;5069490;28;20420;-66
2023/03/27 02:15:49;;;;;;;5.25;1.52;;;5.90;1.00;;;;;;5067429;28;20395;-66
2023/03/27 02:18:21;;;;;;;8.05;2.15;;;5.80;1.00;;;;;;5067149;28;20508;-65
2023/03/27 02:20:46;;;;;;;8.27;2.10;;;7.20;1.00;;;;;;5064576;28;20404;-66
2023/03/27 02:23:12;;;;;;;8.60;2.50;;;7.50;99.90;;;;;;5064028;28;20409;-65
2023/03/27 02:25:44;;;;;;;6.35;2.08;;;5.50;99.90;;;;;;5067589;28;20402;-65
2023/03/27 02:28:18;;;;;;;10.10;2.92;;;5.50;99.90;;;;;;5054272;28;20401;-65
2023/03/27 02:30:59;;;;;;;6.97;2.17;;;5.50;99.90;;;;;;5057679;28;20407;-66
2023/03/27 02:33:43;;;;;;;9.85;2.65;;;5.30;99.90;;;;;;5068546;28;20396;-65
2023/03/27 02:36:27;;;;;;;13.07;3.42;;;5.30;99.90;;;;;;5049957;28;20508;-66
2023/03/27 02:38:59;;;;;;;9.30;2.88;;;5.30;99.90;;;;;;5051748;28;20397;-66
2023/03/27 02:41:48;;;;;;;11.37;3.50;;;5.40;99.90;;;;;;5051819;28;20395;-66
2023/03/27 02:44:38;;;;;;;7.00;2.58;;;5.50;42.70;;;;;;5040210;28;20412;-66
2023/03/27 02:47:13;;;;;;;13.15;3.50;;;5.30;1.00;;;;;;5031876;28;20428;-66
2023/03/27 02:49:45;;;;;;;10.77;2.40;;;6.40;1.00;;;;;;5062745;28;20885;-65
2023/03/27 02:52:17;;;;;;;13.65;3.42;;;5.20;1.00;;;;;;5049821;28;20389;-66
2023/03/27 02:55:05;;;;;;;9.38;3.00;;;5.30;1.00;;;;;;5049984;28;20873;-66
2023/03/27 02:57:38;;;;;;;7.90;2.80;;;5.20;1.00;;;;;;5050222;28;20402;-65
2023/03/27 03:00:12;;;;;;;9.60;3.28;;;6.40;7.00;;;;;;5049868;28;20465;-66
2023/03/27 03:02:40;;;;;;;9.95;2.72;;;5.00;95.70;;;;;;5057293;28;20419;-65
2023/03/27 03:05:13;;;;;;;12.87;2.77;;;5.00;99.90;;;;;;5049454;28;20443;-65
2023/03/27 03:07:39;;;;;;;8.80;2.90;;;5.00;99.90;;;;;;5066832;28;20441;-65
2023/03/27 03:10:07;;;;;;;10.33;3.20;;;5.10;99.90;;;;;;5061637;28;20401;-65
2023/03/27 03:12:32;;;;;;;11.50;3.07;;;5.00;14.40;;;;;;5069040;28;20407;-65
2023/03/27 03:14:58;;;;;;;15.67;4.30;;;5.10;25.60;;;;;;5053124;28;20477;-62
2023/03/27 03:17:24;;;;;;;10.52;3.08;;;5.20;1.00;;;;;;5053174;28;20389;-65
2023/03/27 03:19:50;;;;;;;13.50;3.45;;;5.30;1.00;;;;;;5050141;28;20389;-65
2023/03/27 03:22:15;;;;;;;14.55;3.70;;;5.30;99.90;;;;;;5064775;28;21004;-63
2023/03/27 03:24:42;;;;;;;9.50;2.93;;;5.20;1.00;;;;;;5062635;28;20934;-65
2023/03/27 03:27:08;;;;;;;7.43;2.60;;;5.20;1.00;;;;;;5050057;28;20389;-65
2023/03/27 03:29:35;;;;;;;14.00;3.70;;;5.10;99.90;;;;;;5061698;28;20442;-65
2023/03/27 03:32:02;;;;;;;10.07;3.90;;;5.80;99.90;;;;;;5058474;28;20413;-65
2023/03/27 03:34:29;;;;;;;8.80;3.60;;;5.10;99.90;;;;;;5057404;28;20757;-64
2023/03/27 03:36:55;;;;;;;6.60;2.10;;;5.40;1.00;;;;;;5059567;28;20396;-62
2023/03/27 03:39:21;;;;;;;9.87;2.37;;;5.00;99.90;;;;;;5057619;28;20454;-64
2023/03/27 03:41:47;;;;;;;8.25;2.35;;;4.90;99.90;;;;;;5059085;28;20411;-65
2023/03/27 03:44:13;;;;;;;6.90;2.78;;;4.80;99.90;;;;;;5057768;28;20739;-64
2023/03/27 03:46:39;;;;;;;9.57;2.80;;;4.70;99.90;;;;;;5057742;28;20404;-65
2023/03/27 03:49:04;;;;;;;10.18;2.55;;;4.80;1.00;;;;;;5059305;28;20456;-64
2023/03/27 03:51:31;;;;;;;7.38;2.80;;;4.90;1.00;;;;;;5055755;28;20817;-63
2023/03/27 03:53:57;;;;;;;8.10;2.30;;;6.00;98.80;;;;;;5058456;28;20397;-61
2023/03/27 03:56:23;;;;;;;10.90;2.50;;;4.60;1.00;;;;;;5058068;28;20743;-64
2023/03/27 03:58:49;;;;;;;10.70;2.70;;;4.70;99.90;;;;;;5056311;28;20467;-65
2023/03/27 04:01:19;;;;;;;7.20;2.20;;;4.60;1.00;;;;;;5055090;28;20415;-64
2023/03/27 04:03:49;;;;;;;12.75;2.28;;;4.60;1.00;;;;;;5059052;28;20441;-65
2023/03/27 04:06:25;;;;;;;9.10;2.38;;;5.70;1.00;;;;;;5058215;28;21255;-64
2023/03/27 04:08:52;;;;;;;12.20;2.28;;;4.50;1.00;;;;;;5056809;28;20388;-65
2023/03/27 04:11:18;;;;;;;10.20;2.38;;;4.40;99.90;;;;;;5059076;28;21009;-65
2023/03/27 04:13:44;;;;;;;9.35;1.65;;;4.30;1.00;;;;;;5059396;28;20438;-65
2023/03/27 04:16:09;;;;;;;9.52;2.20;;;4.20;99.90;;;;;;5054742;28;20564;-65
2023/03/27 04:18:39;;;;;;;9.80;2.00;;;5.50;99.90;;;;;;5057318;28;20457;-64
2023/03/27 04:21:05;;;;;;;6.43;1.60;;;4.10;1.00;;;;;;5050710;28;20528;-67
2023/03/27 04:23:31;;;;;;;8.10;1.98;;;4.10;65.50;;;;;;5059964;28;20445;-65
2023/03/27 04:26:02;;;;;;;6.30;1.73;;;4.10;99.90;;;;;;5056014;28;20446;-61
2023/03/27 04:28:33;;;;;;;5.90;1.90;;;4.00;10.20;;;;;;5063731;28;20417;-65
2023/03/27 04:31:05;;;;;;;11.80;1.73;;;4.00;84.30;;;;;;5061365;28;20888;-62
2023/03/27 04:33:38;;;;;;;11.27;1.75;;;4.00;1.00;;;;;;5055892;28;20397;-65
2023/03/27 04:36:07;;;;;;;9.25;1.98;;;3.90;53.70;;;;;;5061032;28;20402;-65
2023/03/27 04:38:35;;;;;;;8.07;1.80;;;3.90;1.00;;;;;;5051550;28;20397;-65
2023/03/27 04:41:01;;;;;;;9.35;1.70;;;3.70;1.00;;;;;;5054893;28;20537;-64
2023/03/27 04:43:27;;;;;;;7.10;1.20;;;3.60;1.00;;;;;;5058934;28;20551;-65
2023/03/27 04:45:53;;;;;;;15.10;2.20;;;3.60;1.00;;;;;;5055085;28;20480;-66
2023/03/27 04:48:20;;;;;;;8.15;1.63;;;3.40;1.00;;;;;;5071523;28;20861;-65
2023/03/27 04:50:49;;;;;;;6.32;1.38;;;3.50;34.50;;;;;;5063244;28;20428;-65
2023/03/27 04:53:22;;;;;;;8.38;1.10;;;3.40;99.90;;;;;;5064405;28;20395;-64
2023/03/27 04:55:49;;;;;;;5.60;1.40;;;3.30;1.00;;;;;;5061933;28;20487;-65
2023/03/27 04:58:17;;;;;;;5.30;1.83;;;3.30;1.00;;;;;;5071204;28;20441;-65
2023/03/27 05:00:49;;;;;;;4.95;1.40;;;3.20;99.90;;;;;;5059334;28;20405;-65
2023/03/27 05:03:16;;;;;;;9.60;1.40;;;3.30;99.90;;;;;;5037905;28;20467;-66
2023/03/27 05:05:42;;;;;;;6.78;1.25;;;3.30;32.70;;;;;;5072007;28;20388;-66
2023/03/27 05:08:08;;;;;;;10.57;1.40;;;3.20;99.90;;;;;;5058132;28;20483;-66
2023/03/27 05:10:34;;;;;;;6.38;1.65;;;3.20;99.90;;;;;;5061164;28;20467;-65
2023/03/27 05:12:59;;;;;;;7.95;1.50;;;3.30;71.70;;;;;;5063208;28;20923;-61
2023/03/27 05:15:25;;;;;;;8.10;1.77;;;3.50;1.00;;;;;;5055993;28;20397;-66
2023/03/27 05:17:53;;;;;;;10.90;1.20;;;3.30;99.90;;;;;;5054790;28;20475;-67
2023/03/27 05:20:20;;;;;;;11.60;1.00;;;3.20;1.00;;;;;;5053721;28;20389;-65
2023/03/27 05:22:46;;;;;;;6.10;1.30;;;3.20;99.90;;;;;;5050158;28;20412;-65
2023/03/27 05:25:12;;;;;;;11.88;1.55;;;3.10;99.90;;;;;;5049716;28;20840;-66
2023/03/27 05:27:47;;;;;;;5.53;1.17;;;3.20;99.90;;;;;;5062058;28;20476;-66
2023/03/27 05:30:14;;;;;;;7.75;1.20;;;3.20;99.90;;;;;;5060373;28;20411;-66
2023/03/27 05:32:43;;;;;;;8.13;1.13;;;3.40;99.90;;;;;;5068097;28;20892;-66
2023/03/27 05:35:10;;;;;;;10.35;1.40;;;3.30;1.00;;;;;;5067840;28;20387;-65
2023/03/27 05:37:35;;;;;;;9.80;1.45;;;3.40;1.00;;;;;;5061458;28;20421;-64
2023/03/27 05:40:01;;;;;;;5.00;1.30;;;3.40;1.00;;;;;;5058716;28;20796;-62
2023/03/27 05:42:27;;;;;;;8.53;2.00;;;4.20;1.00;;;;;;5056553;28;20439;-64
2023/03/27 05:44:52;;;;;;;7.30;1.65;;;3.50;1.00;;;;;;5054639;28;20388;-64
2023/03/27 05:47:19;;;;;;;8.50;1.60;;;3.60;1.00;;;;;;5049273;28;20369;-65
2023/03/27 05:49:45;;;;;;;6.27;1.23;;;3.60;99.90;;;;;;5051671;28;20431;-64
2023/03/27 05:52:10;;;;;;;8.23;1.50;;;3.70;99.90;;;;;;5051572;28;20481;-65
2023/03/27 05:54:36;;;;;;;9.70;1.48;;;3.60;99.90;;;;;;5051452;28;20377;-64
2023/03/27 05:57:02;;;;;;;7.27;1.80;;;3.40;99.90;;;;;;5050862;28;20467;-64
2023/03/27 05:59:27;;;;;;;8.68;1.70;;;3.60;99.90;;;;;;5051717;28;20425;-64
2023/03/27 06:01:53;;;;;;;5.23;1.20;;;3.30;99.90;;;;;;5051588;28;20907;-64
2023/03/27 06:04:20;;;;;;;5.50;1.25;;;3.40;99.90;;;;;;5047151;28;20561;-61
2023/03/27 06:06:46;;;;;;;11.05;1.50;;;3.50;99.90;;;;;;5047505;28;20893;-63
2023/03/27 06:09:12;;;;;;;6.60;1.50;;;3.50;99.90;;;;;;5051198;28;20373;-64
2023/03/27 06:11:39;;;;;;;5.55;1.30;;;3.50;99.90;;;;;;5051410;28;20390;-64
2023/03/27 06:14:05;;;;;;;6.63;1.60;;;3.50;99.90;;;;;;5050825;28;20915;-66
2023/03/27 06:16:32;;;;;;;9.63;1.50;;;3.20;99.90;;;;;;5051417;28;20468;-66
2023/03/27 06:18:58;;;;;;;5.32;1.00;;;3.20;99.90;;;;;;5051004;28;20463;-60
2023/03/27 06:21:24;;;;;;;8.23;1.30;;;4.40;99.90;;;;;;5050260;28;20389;-62
2023/03/27 06:23:50;;;;;;;9.43;1.98;;;3.30;99.90;;;;;;5051250;28;20425;-66
2023/03/27 06:26:16;;;;;;;5.35;1.20;;;3.80;99.90;;;;;;5050372;28;20405;-65
2023/03/27 06:28:42;;;;;;;10.38;1.65;;;3.50;99.90;;;;;;5051247;28;20847;-67
2023/03/27 06:31:08;;;;;;;9.20;1.30;;;4.50;99.90;;;;;;5050335;28;20414;-65
2023/03/27 06:33:33;;;;;;;9.77;1.17;;;3.80;99.90;;;;;;5050838;28;20727;-64
2023/03/27 06:36:00;;;;;;;7.53;1.95;;;3.70;99.90;;;;;;5050424;28;20382;-60
2023/03/27 06:38:30;;;;;;;5.95;1.20;;;3.90;99.90;;;;;;5050714;28;20421;-64
2023/03/27 06:40:56;;;;;;;8.30;1.90;;;3.70;99.90;;;;;;5050680;28;20385;-65
2023/03/27 06:43:21;;;;;;;5.93;1.10;;;4.80;99.90;;;;;;5050195;28;20416;-65
2023/03/27 06:45:49;;;;;;;9.50;1.40;;;5.30;99.90;;;;;;5050834;28;20430;-64
2023/03/27 06:48:16;;;;;;;8.05;1.70;;;3.80;99.00;;;;;;5050050;28;20386;-65
2023/03/27 06:50:43;;;;;;;11.68;1.80;;;4.10;44.10;;;;;;5050616;28;20456;-65
2023/03/27 06:53:10;;;;;;;6.43;1.63;;;4.30;26.50;;;;;;5049898;28;20393;-65
2023/03/27 06:55:36;;;;;;;11.20;1.30;;;5.00;1.00;;;;;;5050564;28;20469;-66
2023/03/27 06:58:03;;;;;;;15.25;1.50;;;4.70;1.00;;;;;;5049202;28;20402;-61
2023/03/27 07:00:34;;;;;;;9.50;1.20;;;6.00;1.00;;;;;;5050618;28;20410;-65
2023/03/27 07:03:03;;;;;;;10.88;1.45;;;4.70;1.00;;;;;;5050099;28;20401;-60
2023/03/27 07:05:31;;;;;;;9.85;1.90;;;4.30;1.00;;;;;;5049853;28;20778;-65
2023/03/27 07:07:57;;;;;;;8.63;1.42;;;4.50;1.00;;;;;;5050151;28;20883;-65
2023/03/27 07:10:24;;;;;;;7.18;1.40;;;4.70;1.00;;;;;;5049547;28;20735;-64
2023/03/27 07:12:53;;;;;;;5.63;1.20;;;4.30;1.00;;;;;;5050142;28;20378;-65
2023/03/27 07:15:19;;;;;;;5.63;1.30;;;4.50;1.00;;;;;;5049180;28;20389;-65
2023/03/27 07:18:05;;;;;;;6.07;1.33;;;5.20;1.00;;;;;;5050145;28;20392;-64
2023/03/27 07:20:33;;;;;;;8.13;1.55;;;5.60;1.00;;;;;;5050419;28;20409;-67
2023/03/27 07:23:00;;;;;;;10.25;1.52;;;5.90;1.00;;;;;;5049667;28;20489;-62
2023/03/27 07:25:28;;;;;;;7.90;1.38;;;6.00;1.00;;;;;;5049955;28;20389;-66
2023/03/27 07:27:58;;;;;;;10.27;1.63;;;5.90;1.00;;;;;;5049697;28;20393;-66
2023/03/27 07:30:23;;;;;;;6.57;1.70;;;5.90;1.00;;;;;;5049306;28;20405;-66
2023/03/27 07:32:50;;;;;;;10.00;1.77;;;6.20;1.00;;;;;;5049604;28;20454;-66
2023/03/27 07:35:15;;;;;;;7.97;1.55;;;6.20;1.00;;;;;;5049044;28;20480;-67
2023/03/27 07:37:41;;;;;;;7.57;1.60;;;6.30;1.00;;;;;;5049633;28;20464;-67
2023/03/27 07:40:12;;;;;;;6.15;1.23;;;6.30;1.00;;;;;;5049159;28;20473;-66
2023/03/27 07:42:38;;;;;;;5.50;1.20;;;6.60;1.00;;;;;;5032207;28;20405;-66
2023/03/27 07:45:04;;;;;;;7.20;1.20;;;5.90;1.00;;;;;;5048747;28;20482;-62
2023/03/27 07:47:31;;;;;;;7.70;1.30;;;5.70;1.00;;;;;;5049954;28;20404;-66
2023/03/27 07:49:56;;;;;;;9.52;1.40;;;7.00;1.00;;;;;;5049893;28;20376;-67
2023/03/27 07:52:22;;;;;;;8.43;1.30;;;6.20;1.00;;;;;;5048697;28;20750;-66
2023/03/27 07:54:47;;;;;;;6.07;1.70;;;6.30;1.00;;;;;;5049777;28;20408;-64
2023/03/27 07:57:14;;;;;;;6.25;1.30;;;5.60;1.00;;;;;;5048795;28;20432;-66
2023/03/27 07:59:40;;;;;;;7.70;1.35;;;6.00;1.00;;;;;;5049335;28;20421;-66
2023/03/27 08:02:08;;;;;;;11.18;1.63;;;6.80;1.00;;;;;;5048598;28;20878;-66
2023/03/27 08:04:35;;;;;;;5.50;0.80;;;7.40;99.90;;;;;;5050018;28;20401;-66
2023/03/27 08:07:01;;;;;;;8.02;1.30;;;7.60;99.90;;;;;;5048931;28;20389;-61
2023/03/27 08:09:26;;;;;;;7.30;1.00;;;8.30;99.90;;;;;;5048095;28;20396;-64
2023/03/27 08:11:52;;;;;;;7.23;1.70;;;8.70;99.90;;;;;;5049438;28;20854;-63
2023/03/27 08:14:18;;;;;;;8.38;1.20;;;9.70;99.90;;;;;;5048388;28;20844;-63
2023/03/27 08:16:44;;;;;;;7.60;1.00;;;;;;;;;;5049045;28;20965;-63
2023/03/27 08:19:10;;;;;;;9.43;1.58;;;11.00;99.90;;;;;;5048641;28;20381;-64
2023/03/27 08:21:37;;;;;;;7.60;1.00;;;;;;;;;;5049090;28;21151;-65
2023/03/27 08:24:03;;;;;;;6.68;1.15;;;10.90;1.00;;;;;;5048746;28;20908;-63
2023/03/27 08:26:32;;;;;;;7.50;1.20;;;10.80;1.00;;;;;;5049001;28;20374;-65
2023/03/27 08:28:58;;;;;;;6.43;1.17;;;11.60;1.00;;;;;;5049175;28;20447;-65
2023/03/27 08:31:24;;;;;;;7.50;1.30;;;12.20;99.90;;;;;;5048621;28;20389;-65
2023/03/27 08:33:50;;;;;;;7.40;1.60;;;12.60;99.90;;;;;;5049016;28;20397;-63
2023/03/27 08:36:18;;;;;;;8.75;1.30;;;13.10;99.90;;;;;;5048128;28;20451;-63
2023/03/27 08:38:45;;;;;;;5.97;1.30;;;13.80;99.90;;;;;;5048346;28;20972;-63
2023/03/27 08:41:31;;;;;;;6.65;1.15;;;13.50;99.90;;;;;;5030698;28;20870;-63
2023/03/27 08:44:02;;;;;;;6.40;1.00;;;13.40;99.90;;;;;;5049156;28;20404;-63
2023/03/27 08:46:55;;;;;;;5.70;1.17;;;13.60;99.90;;;;;;5048644;28;20870;-63
2023/03/27 08:49:25;;;;;;;7.30;1.50;;;13.50;99.90;;;;;;5048279;28;21243;-63
2023/03/27 08:51:58;;;;;;;8.20;1.67;;;13.50;99.90;;;;;;5049028;28;20777;-63
2023/03/27 08:54:31;;;;;;;6.38;1.50;;;14.00;99.90;;;;;;5048229;28;20408;-63
2023/03/27 08:56:57;;;;;;;7.53;1.42;;;14.10;99.90;;;;;;5048603;28;20755;-62
2023/03/27 08:59:26;;;;;;;6.60;1.53;;;13.80;99.90;;;;;;5048359;28;20461;-63
2023/03/27 09:02:16;;;;;;;6.57;1.67;;;14.10;99.90;;;;;;5048653;28;20405;-62
2023/03/27 09:05:13;;;;;;;5.38;1.60;;;14.70;99.90;;;;;;5048953;28;20484;-63
2023/03/27 09:08:07;;;;;;;9.43;1.90;;;15.10;99.90;;;;;;5049074;28;20381;-63
2023/03/27 09:10:42;;;;;;;8.20;1.70;;;15.70;99.90;;;;;;5048523;28;20755;-63
2023/03/27 09:13:17;;;;;;;8.40;1.90;;;14.80;99.90;;;;;;5048067;28;20393;-62
2023/03/27 09:15:58;;;;;;;7.30;1.77;;;13.60;99.90;;;;;;5048974;28;20390;-63
2023/03/27 09:18:33;;;;;;;11.20;1.90;;;14.40;99.90;;;;;;5047771;28;20991;-62
2023/03/27 09:21:30;;;;;;;7.53;1.98;;;14.30;99.90;;;;;;5050422;28;20388;-63
2023/03/27 09:23:59;;;;;;;6.63;1.83;;;;;;;;;;5051290;28;20739;-63
2023/03/27 09:26:31;;;;;;;7.90;1.60;;;15.20;99.90;;;;;;5051439;28;20370;-63
2023/03/27 09:29:02;;;;;;;7.10;1.90;;;15.20;99.90;;;;;;5052008;28;20420;-61
2023/03/27 09:31:34;;;;;;;9.35;1.80;;;12.80;99.90;;;;;;5051859;28;20394;-65
2023/03/27 09:34:05;;;;;;;7.03;1.65;;;12.50;99.90;;;;;;5052060;28;20412;-63
2023/03/27 09:36:34;;;;;;;9.10;1.60;;;11.20;99.90;;;;;;5051796;28;20390;-63
2023/03/27 09:39:06;;;;;;;7.57;1.65;;;10.70;99.90;;;;;;5051765;28;20522;-61
2023/03/27 09:41:40;;;;;;;5.97;1.67;;;9.90;99.90;;;;;;5051975;28;20382;-63
2023/03/27 09:44:14;;;;;;;6.87;1.30;;;10.30;99.90;;;;;;5051167;28;20377;-61
2023/03/27 09:46:45;;;;;;;6.20;1.33;;;9.50;99.90;;;;;;5051595;28;20747;-63
2023/03/27 09:49:16;;;;;;;5.20;1.10;;;10.10;99.90;;;;;;5051159;28;20827;-63
2023/03/27 09:51:54;;;;;;;6.28;1.60;;;11.80;99.90;;;;;;5051878;28;20443;-63
2023/03/27 09:54:23;;;;;;;6.10;1.57;;;13.40;99.90;;;;;;5051008;28;20397;-63
2023/03/27 09:56:53;;;;;;;8.52;1.67;;;12.20;99.90;;;;;;5051939;28;20393;-63
2023/03/27 09:59:27;;;;;;;5.90;1.50;;;10.80;99.90;;;;;;5050398;28;20402;-63
2023/03/27 10:01:58;;;;;;;6.07;1.63;;;11.20;99.90;;;;;;5051594;28;20413;-63
2023/03/27 10:04:26;;;;;;;7.15;1.58;;;11.70;99.90;;;;;;5050943;28;20411;-63
2023/03/27 10:07:05;;;;;;;5.40;1.40;;;11.50;99.90;;;;;;5051489;28;20460;-63
2023/03/27 10:09:36;;;;;;;5.05;1.20;;;11.70;99.90;;;;;;5051197;28;20422;-63
2023/03/27 10:12:17;;;;;;;5.90;1.50;;;11.30;99.90;;;;;;5051635;28;20462;-61
2023/03/27 10:14:46;;;;;;;5.30;1.30;;;11.90;99.90;;;;;;5051354;28;20873;-62
2023/03/27 10:17:38;;;;;;;6.65;1.60;;;13.10;99.90;;;;;;5050536;28;20727;-62
2023/03/27 10:20:09;;;;;;;9.00;2.00;;;13.40;99.90;;;;;;5051192;28;20394;-61
2023/03/27 10:22:37;;;;;;;9.60;2.20;;;13.90;99.90;;;;;;5051253;28;20463;-63
2023/03/27 10:25:14;;;;;;;9.82;2.38;;;14.80;99.90;;;;;;5050729;28;20729;-62
2023/03/27 10:27:42;;;;;;;9.98;2.50;;;15.10;99.90;;;;;;5051463;28;20396;-63
2023/03/27 10:30:24;;;;;;;6.30;1.90;;;15.00;99.90;;;;;;5050465;28;20444;-62
2023/03/27 10:32:50;;;;;;;8.57;2.35;;;15.20;99.90;;;;;;5050368;28;20396;-62
2023/03/27 10:35:27;;;;;;;7.65;1.73;;;14.00;99.90;;;;;;5049854;28;20875;-63
2023/03/27 10:37:54;;;;;;;7.82;2.13;;;13.80;99.90;;;;;;5050729;28;20401;-63
2023/03/27 10:40:24;;;;;;;7.55;2.13;;;12.50;99.90;;;;;;5049977;28;20409;-63
2023/03/27 10:42:53;;;;;;;7.78;2.30;;;12.60;99.90;;;;;;5050957;28;20410;-64
2023/03/27 10:45:20;;;;;;;8.30;2.10;;;13.90;99.90;;;;;;5050066;28;20401;-63
2023/03/27 10:47:56;;;;;;;10.18;2.17;;;14.80;99.90;;;;;;5050758;28;20460;-64
2023/03/27 10:50:30;;;;;;;7.63;2.15;;;15.00;99.90;;;;;;5049934;28;20432;-63
2023/03/27 10:53:02;;;;;;;8.00;2.40;;;14.90;99.90;;;;;;5050802;28;20385;-64
2023/03/27 10:55:53;;;;;;;6.60;2.38;;;13.50;99.90;;;;;;5049980;28;20468;-63
2023/03/27 10:58:22;;;;;;;6.90;2.20;;;12.40;99.90;;;;;;5049709;28;20874;-64
2023/03/27 11:01:07;;;;;;;7.30;2.30;;;11.50;99.90;;;;;;5050490;28;20405;-64
2023/03/27 11:03:38;;;;;;;7.10;2.00;;;10.60;99.90;;;;;;5050395;28;20421;-64
2023/03/27 11:06:10;;;;;;;6.80;2.03;;;9.60;99.90;;;;;;5050221;28;20922;-62
2023/03/27 11:09:00;;;;;;;11.13;1.90;;;10.30;99.90;;;;;;5050537;28;20523;-63
2023/03/27 11:11:31;;;;;;;7.20;1.60;;;11.80;99.90;;;;;;5049440;28;20905;-64
2023/03/27 11:14:01;;;;;;;7.00;1.50;;;12.20;99.90;;;;;;5050374;28;20424;-64
2023/03/27 11:16:33;;;;;;;7.00;1.60;;;12.30;99.90;;;;;;5049613;28;20456;-65
2023/03/27 11:19:07;;;;;;;7.53;1.80;;;13.00;99.90;;;;;;5050222;28;20421;-64
2023/03/27 11:21:36;;;;;;;7.65;1.70;;;13.20;99.90;;;;;;5050689;28;20377;-64
2023/03/27 11:24:05;;;;;;;7.32;1.70;;;14.60;99.90;;;;;;5050295;28;20489;-64
2023/03/27 11:26:54;;;;;;;8.40;1.80;;;13.60;99.90;;;;;;5049855;28;20438;-64
2023/03/27 11:29:31;;;;;;;8.17;1.70;;;12.20;99.90;;;;;;5045344;28;20421;-64
2023/03/27 11:32:10;;;;;;;6.70;1.50;;;11.50;99.90;;;;;;5049821;28;20377;-64
2023/03/27 11:34:43;;;;;;;8.50;1.40;;;11.00;99.90;;;;;;5050144;28;20431;-65
2023/03/27 11:37:41;;;;;;;6.05;1.50;;;11.00;99.90;;;;;;5049232;28;20448;-62
2023/03/27 11:40:19;;;;;;;6.63;1.20;;;11.10;99.90;;;;;;5049023;28;20712;-60
2023/03/27 11:42:46;;;;;;;5.80;1.45;;;10.80;99.90;;;;;;5049667;28;20767;-62
2023/03/27 11:45:46;;;;;;;5.40;1.40;;;11.10;99.90;;;;;;5048913;28;20388;-64
2023/03/27 11:48:34;;;;;;;4.97;1.30;;;10.70;99.90;;;;;;5049429;28;20506;-64
2023/03/27 11:51:43;;;;;;;8.40;1.70;;;10.10;99.90;;;;;;5049706;28;20429;-64
2023/03/27 11:54:34;;;;;;;4.97;1.23;;;10.40;99.90;;;;;;5049634;28;20404;-64
2023/03/27 11:57:02;;;;;;;8.90;1.50;;;11.00;99.90;;;;;;5049786;28;20425;-64
2023/03/27 11:59:37;;;;;;;7.95;1.50;;;11.50;99.90;;;;;;5048847;28;20472;-65
2023/03/27 12:02:32;;;;;;;5.10;1.50;;;11.90;99.90;;;;;;5049979;28;20413;-64
2023/03/27 12:05:15;;;;;;;5.93;1.50;;;11.10;99.90;;;;;;5049606;28;20393;-66
2023/03/27 12:08:21;;;;;;;5.35;1.15;;;10.30;99.90;;;;;;5049711;28;20380;-65
2023/03/27 12:10:48;;;;;;;5.90;1.10;;;9.90;99.90;;;;;;5049542;28;20386;-63
2023/03/27 12:13:50;;;;;;;6.93;1.50;;;9.90;99.90;;;;;;5048461;28;20421;-64
2023/03/27 12:16:40;;;;;;;7.00;1.40;;;10.00;99.90;;;;;;5049229;28;20866;-65
2023/03/27 12:19:34;;;;;;;6.22;1.95;;;10.10;99.90;;;;;;5049151;28;20465;-60
2023/03/27 12:22:33;;;;;;;5.57;1.20;;;10.10;99.90;;;;;;5049737;28;20462;-65
2023/03/27 12:25:18;;;;;;;7.40;1.50;;;10.80;99.90;;;;;;5031751;28;20389;-65
2023/03/27 12:28:00;;;;;;;5.67;1.60;;;11.20;99.90;;;;;;5049002;28;20397;-65
2023/03/27 12:30:58;;;;;;;5.30;1.20;;;11.60;99.90;;;;;;5049117;28;20416;-65
2023/03/27 12:33:43;;;;;;;5.30;1.30;;;11.40;99.90;;;;;;5048989;28;21271;-66
2023/03/27 12:36:18;;;;;;;7.50;1.60;;;11.20;99.90;;;;;;5048543;28;20920;-64
2023/03/27 12:38:44;;;;;;;9.20;2.00;;;10.80;99.90;;;;;;5049638;28;20388;-63
2023/03/27 12:41:31;;;;;;;6.70;1.20;;;11.00;99.90;;;;;;5048861;28;20369;-63
2023/03/27 12:44:00;;;;;;;8.40;1.40;;;10.70;99.90;;;;;;5049197;28;20463;-64
2023/03/27 12:46:27;;;;;;;7.07;1.10;;;10.30;99.90;;;;;;5048931;28;20480;-63
2023/03/27 12:49:06;;;;;;;7.90;1.50;;;10.20;99.90;;;;;;5049117;28;20879;-64
2023/03/27 12:51:42;;;;;;;6.50;1.20;;;9.80;99.90;;;;;;5048568;28;20868;-64
2023/03/27 12:54:35;;;;;;;5.90;1.10;;;9.80;99.90;;;;;;5048690;28;20397;-60
2023/03/27 12:57:06;;;;;;;6.60;1.20;;;9.20;99.90;;;;;;5048182;28;20397;-67
2023/03/27 12:59:54;;;;;;;7.60;1.60;;;8.80;99.90;;;;;;5052419;28;20424;-67
2023/03/27 13:02:55;;;;;;;6.75;1.20;;;8.80;99.90;;;;;;5052132;28;20420;-67
2023/03/27 13:05:35;;;;;;;4.57;0.98;;;8.40;99.90;;;;;;5051961;28;20385;-67
2023/03/27 13:08:16;;;;;;;11.82;1.30;;;8.50;99.90;;;;;;5052789;28;20386;-67
2023/03/27 13:10:47;;;;;;;5.10;1.40;;;8.60;99.90;;;;;;5052519;28;20446;-67
2023/03/27 13:13:34;;;;;;;5.80;1.60;;;9.00;99.90;;;;;;5052076;28;20389;-67
2023/03/27 13:16:31;;;;;;;6.90;1.60;;;7.60;99.90;;;;;;5052344;28;20405;-67
2023/03/27 13:19:04;;;;;;;5.70;1.10;;;7.60;99.90;;;;;;5052982;28;20388;-68
2023/03/27 13:22:00;;;;;;;5.70;1.40;;;7.40;99.90;;;;;;5052202;28;20406;-67
2023/03/27 13:25:03;;;;;;;6.85;1.30;;;7.40;1.00;;;;;;5052252;28;20447;-66
2023/03/27 13:27:42;;;;;;;6.45;1.60;;;7.20;1.00;;;;;;5052213;28;20906;-68
2023/03/27 13:30:48;;;;;;;6.97;1.70;;;7.40;10.60;;;;;;5052350;28;20406;-62